Terminal Aerodrome Forecast
Issued by NWS

Home | Current Version | Previous Version | Text Only | Print | Product List | Glossary On
Versions: 1 2 3 4 5 6 7 8 9 10 11 12 13 14 15 16
000
FTUS44 KLIX 271120
TAFHDC
TAF
KHDC 271120Z 2712/2812 20006KT P6SM BKN035
     FM272100 19007KT P6SM SCT070
     FM280500 20007KT P6SM SCT025
     FM280600 20007KT P6SM SCT010
     FM280700 20007KT P6SM BKN010=

USA.gov is the U.S. government's official web portal to all federal, state and local government web resources and services.